Terminal Aerodrome Forecast
Issued by NWS

Home | Current Version | Previous Version | Text Only | Print | Product List | Glossary On
Versions: 1 2 3 4 5 6 7 8 9 10 11 12 13 14 15 16 17 18 19 20 21
856
FTAK31 PAJN 241142 RRA
TAFAJN
TAF
PAJN 241142Z 2412/2512 00000KT P6SM OVC100
     FM241800 10008KT 4SM -SN BR OVC030
     FM242000 10008KT 1 1/2SM -SN BR OVC015
     FM250500 09004KT 6SM -SHSN BKN025 OVC040=

USA.gov is the U.S. government's official web portal to all federal, state and local government web resources and services.